首页
METAR-TAF:

METAR-TAF

机场 :

Cape Peel West, 努那武特, 加拿大

纬度: 69-02N, 经度: 107-49W, 海拔: 165米

当前天气观测

该预报发布于27分钟前的02:00 UTC
风速11节,风向东北
温度 -32°C
湿度 67%
气压 1009 hPa
散云层高于26000英尺
多云层高于28000英尺
多云层高于30000英尺

METAR: CWPX 210200Z AUTO 05011KT ////SM //// SCT260 BKN280 BKN300 M32/M36 A2980

时间: 19:27 (02:27 UTC)


TAF: 丢失

超过4000个机场的气象观测和天气预报(METAR&TAF报告)。

可查询的气象台以黄色和红色小点在地图上表示。

将鼠标移到小点上方,可查看气象台名称。

然后点击查看天气观测和预报。

如需切换地图:点击带黑十字的绿色按钮放大地图;点击带横线的绿色按钮缩小地图;或者点击绿色箭头查看邻近地区的地图。


METAR-TAF: